N624JX KCRQ-KBJC
Flight info
| Callsign | N624JX |
|---|---|
| Flight time | 1h 26m |
| Altitude | 45000 |
| Route | TRM J236 TBC J128 HBU POWDR1 |
| Aircraft | C750/M-SBDE3FGHRWXY/S |
Departure
| Time | 2026-04-28 18:54 |
|---|---|
| Airport | McClellan-Palomar Airport (KCRQ) |
Arrival
| Time | 2026-04-28 20:21 |
|---|---|
| Airport | Rocky Mountain Metropolitan Airport (KBJC) |
| Time | Latitude | Longitude | Altitude | Speed | Heading |
|---|---|---|---|---|---|
| 2026-04-28 18:38 | 33.12736 | -117.27859 | 328 ft | 0 kts | 259° |
| 2026-04-28 18:50 | 33.12738 | -117.27869 | 328 ft | 1 kts | 302° |
| 2026-04-28 18:50 | 33.12757 | -117.27869 | 328 ft | 5 kts | 18° |
| 2026-04-28 18:50 | 33.12775 | -117.27804 | 328 ft | 10 kts | 79° |
| 2026-04-28 18:51 | 33.12789 | -117.27717 | 329 ft | 12 kts | 79° |
| 2026-04-28 18:51 | 33.12804 | -117.27625 | 328 ft | 11 kts | 79° |
| 2026-04-28 18:51 | 33.12818 | -117.27538 | 328 ft | 10 kts | 79° |
| 2026-04-28 18:51 | 33.12831 | -117.27458 | 328 ft | 10 kts | 79° |
| 2026-04-28 18:52 | 33.12844 | -117.27377 | 328 ft | 9 kts | 79° |
| 2026-04-28 18:52 | 33.12856 | -117.27307 | 327 ft | 7 kts | 70° |
| 2026-04-28 18:52 | 33.12878 | -117.27273 | 329 ft | 5 kts | 49° |
| 2026-04-28 18:52 | 33.12906 | -117.27236 | 327 ft | 6 kts | 41° |
| 2026-04-28 18:53 | 33.12937 | -117.27232 | 330 ft | 3 kts | 351° |
| 2026-04-28 18:53 | 33.12947 | -117.27255 | 328 ft | 5 kts | 263° |
| 2026-04-28 18:53 | 33.12925 | -117.27391 | 331 ft | 53 kts | 259° |
| 2026-04-28 18:53 | 33.12786 | -117.28250 | 347 ft | 141 kts | 259° |
| 2026-04-28 18:54 | 33.12598 | -117.29447 | 875 ft | 151 kts | 259° |
| 2026-04-28 18:54 | 33.12413 | -117.30691 | 1611 ft | 153 kts | 260° |
| 2026-04-28 18:54 | 33.12203 | -117.31956 | 2341 ft | 161 kts | 260° |
| 2026-04-28 18:54 | 33.11952 | -117.33325 | 2905 ft | 178 kts | 259° |
| 2026-04-28 18:55 | 33.11714 | -117.34849 | 3424 ft | 198 kts | 268° |
| 2026-04-28 18:55 | 33.11920 | -117.35944 | 3699 ft | 215 kts | 297° |
| 2026-04-28 18:55 | 33.13591 | -117.37451 | 4356 ft | 248 kts | 348° |
| 2026-04-28 18:55 | 33.15350 | -117.37216 | 4888 ft | 268 kts | 26° |
| 2026-04-28 18:56 | 33.16682 | -117.35696 | 5781 ft | 269 kts | 59° |
| 2026-04-28 18:56 | 33.17526 | -117.33678 | 6625 ft | 277 kts | 66° |
| 2026-04-28 18:56 | 33.18315 | -117.31540 | 7455 ft | 284 kts | 66° |
| 2026-04-28 18:56 | 33.19147 | -117.29373 | 8415 ft | 291 kts | 65° |
| 2026-04-28 18:57 | 33.20028 | -117.27160 | 9326 ft | 299 kts | 64° |
| 2026-04-28 18:57 | 33.20925 | -117.24883 | 10159 ft | 308 kts | 65° |
| 2026-04-28 18:57 | 33.21856 | -117.22488 | 10592 ft | 328 kts | 65° |
| 2026-04-28 18:57 | 33.22843 | -117.19954 | 11025 ft | 345 kts | 65° |
| 2026-04-28 18:58 | 33.23882 | -117.17295 | 11449 ft | 360 kts | 65° |
| 2026-04-28 18:58 | 33.24962 | -117.14529 | 11896 ft | 374 kts | 65° |
| 2026-04-28 18:58 | 33.26078 | -117.11665 | 12361 ft | 386 kts | 65° |
| 2026-04-28 18:58 | 33.27227 | -117.08714 | 12814 ft | 397 kts | 65° |
| 2026-04-28 18:59 | 33.28406 | -117.05683 | 13281 ft | 407 kts | 65° |
| 2026-04-28 18:59 | 33.29609 | -117.02587 | 13758 ft | 415 kts | 65° |
| 2026-04-28 18:59 | 33.30837 | -116.99425 | 14196 ft | 423 kts | 65° |
| 2026-04-28 18:59 | 33.32086 | -116.96206 | 14618 ft | 430 kts | 65° |
| 2026-04-28 19:00 | 33.33346 | -116.92954 | 15174 ft | 434 kts | 65° |
| 2026-04-28 19:00 | 33.34621 | -116.89661 | 15655 ft | 439 kts | 65° |
| 2026-04-28 19:00 | 33.35913 | -116.86322 | 16150 ft | 445 kts | 65° |
| 2026-04-28 19:00 | 33.37222 | -116.82935 | 16586 ft | 452 kts | 65° |
| 2026-04-28 19:01 | 33.38548 | -116.79501 | 17074 ft | 457 kts | 65° |
| 2026-04-28 19:01 | 33.39884 | -116.76034 | 17630 ft | 461 kts | 65° |
| 2026-04-28 19:01 | 33.41236 | -116.72526 | 18173 ft | 467 kts | 65° |
| 2026-04-28 19:01 | 33.42603 | -116.68975 | 18689 ft | 472 kts | 65° |
| 2026-04-28 19:02 | 33.43982 | -116.65387 | 19208 ft | 477 kts | 65° |
| 2026-04-28 19:02 | 33.45372 | -116.61766 | 19737 ft | 480 kts | 65° |
| 2026-04-28 19:02 | 33.46775 | -116.58111 | 20272 ft | 485 kts | 65° |
| 2026-04-28 19:02 | 33.48190 | -116.54419 | 20802 ft | 490 kts | 65° |
| 2026-04-28 19:03 | 33.49619 | -116.50683 | 21331 ft | 495 kts | 65° |
| 2026-04-28 19:03 | 33.51057 | -116.46921 | 21906 ft | 499 kts | 65° |
| 2026-04-28 19:03 | 33.52510 | -116.43119 | 22445 ft | 504 kts | 65° |
| 2026-04-28 19:03 | 33.53974 | -116.39281 | 22941 ft | 509 kts | 65° |
| 2026-04-28 19:04 | 33.55446 | -116.35417 | 23533 ft | 511 kts | 65° |
| 2026-04-28 19:04 | 33.56931 | -116.31516 | 23917 ft | 517 kts | 65° |
| 2026-04-28 19:04 | 33.58429 | -116.27572 | 24284 ft | 521 kts | 65° |
| 2026-04-28 19:04 | 33.59934 | -116.23610 | 24716 ft | 524 kts | 65° |
| 2026-04-28 19:05 | 33.61450 | -116.19616 | 25144 ft | 528 kts | 65° |
| 2026-04-28 19:05 | 33.63216 | -116.15739 | 25508 ft | 532 kts | 56° |
| 2026-04-28 19:05 | 33.65441 | -116.12196 | 25938 ft | 533 kts | 49° |
| 2026-04-28 19:05 | 33.67825 | -116.08766 | 26352 ft | 537 kts | 48° |
| 2026-04-28 19:06 | 33.70214 | -116.05306 | 26778 ft | 540 kts | 49° |
| 2026-04-28 19:06 | 33.71798 | -116.02993 | 27054 ft | 543 kts | 49° |
| 2026-04-28 19:06 | 33.75025 | -115.98288 | 27623 ft | 548 kts | 48° |
| 2026-04-28 19:06 | 33.77465 | -115.94750 | 28020 ft | 552 kts | 49° |
| 2026-04-28 19:07 | 33.79920 | -115.91181 | 28430 ft | 556 kts | 49° |
| 2026-04-28 19:07 | 33.82382 | -115.87583 | 28862 ft | 559 kts | 49° |
| 2026-04-28 19:07 | 33.84862 | -115.83958 | 29254 ft | 563 kts | 49° |
| 2026-04-28 19:07 | 33.87351 | -115.80326 | 29894 ft | 561 kts | 49° |
| 2026-04-28 19:08 | 33.89833 | -115.76698 | 30418 ft | 561 kts | 49° |
| 2026-04-28 19:08 | 33.92310 | -115.73068 | 30876 ft | 562 kts | 49° |
| 2026-04-28 19:08 | 33.94794 | -115.69426 | 31311 ft | 564 kts | 49° |
| 2026-04-28 19:08 | 33.97288 | -115.65770 | 31713 ft | 566 kts | 49° |
| 2026-04-28 19:09 | 33.99750 | -115.62155 | 32210 ft | 565 kts | 48° |
| 2026-04-28 19:09 | 34.02241 | -115.58491 | 32751 ft | 565 kts | 48° |
| 2026-04-28 19:09 | 34.04734 | -115.54822 | 33247 ft | 565 kts | 48° |
| 2026-04-28 19:09 | 34.07227 | -115.51152 | 33737 ft | 566 kts | 48° |
| 2026-04-28 19:10 | 34.09721 | -115.47475 | 34229 ft | 566 kts | 48° |
| 2026-04-28 19:10 | 34.12212 | -115.43796 | 34685 ft | 566 kts | 48° |
| 2026-04-28 19:10 | 34.14700 | -115.40119 | 35168 ft | 565 kts | 48° |
| 2026-04-28 19:10 | 34.17186 | -115.36445 | 35639 ft | 565 kts | 48° |
| 2026-04-28 19:11 | 34.19669 | -115.32770 | 36107 ft | 565 kts | 48° |
| 2026-04-28 19:11 | 34.22148 | -115.29093 | 36616 ft | 564 kts | 48° |
| 2026-04-28 19:11 | 34.24621 | -115.25422 | 37139 ft | 563 kts | 48° |
| 2026-04-28 19:11 | 34.27092 | -115.21755 | 37655 ft | 562 kts | 48° |
| 2026-04-28 19:12 | 34.29561 | -115.18085 | 38195 ft | 562 kts | 47° |
| 2026-04-28 19:12 | 34.32030 | -115.14410 | 38695 ft | 563 kts | 47° |
| 2026-04-28 19:12 | 34.34493 | -115.10738 | 39114 ft | 562 kts | 47° |
| 2026-04-28 19:12 | 34.36957 | -115.07065 | 39577 ft | 561 kts | 48° |
| 2026-04-28 19:13 | 34.39409 | -115.03405 | 40062 ft | 559 kts | 48° |
| 2026-04-28 19:13 | 34.41851 | -114.99754 | 40537 ft | 557 kts | 48° |
| 2026-04-28 19:13 | 34.44282 | -114.96117 | 41048 ft | 555 kts | 48° |
| 2026-04-28 19:13 | 34.46704 | -114.92492 | 41543 ft | 553 kts | 48° |
| 2026-04-28 19:14 | 34.49118 | -114.88873 | 42022 ft | 551 kts | 48° |
| 2026-04-28 19:14 | 34.51523 | -114.85265 | 42503 ft | 549 kts | 48° |
| 2026-04-28 19:14 | 34.53921 | -114.81662 | 42967 ft | 548 kts | 48° |
| 2026-04-28 19:14 | 34.56309 | -114.78072 | 43430 ft | 546 kts | 48° |
| 2026-04-28 19:15 | 34.58691 | -114.74486 | 43881 ft | 545 kts | 49° |
| 2026-04-28 19:15 | 34.61065 | -114.70910 | 44337 ft | 543 kts | 49° |
| 2026-04-28 19:15 | 34.63431 | -114.67342 | 44821 ft | 542 kts | 49° |
| 2026-04-28 19:15 | 34.64993 | -114.64984 | 45059 ft | 541 kts | 49° |
| 2026-04-28 19:16 | 34.70583 | -114.56537 | 45089 ft | 556 kts | 49° |
| 2026-04-28 19:16 | 34.75473 | -114.49114 | 45090 ft | 569 kts | 50° |
| 2026-04-28 19:17 | 34.79636 | -114.40806 | 45080 ft | 582 kts | 63° |
| 2026-04-28 19:17 | 34.83358 | -114.31942 | 45052 ft | 593 kts | 60° |
| 2026-04-28 19:18 | 34.87384 | -114.23162 | 45036 ft | 594 kts | 61° |
| 2026-04-28 19:18 | 34.91199 | -114.14220 | 45026 ft | 595 kts | 61° |
| 2026-04-28 19:19 | 34.95162 | -114.05373 | 45034 ft | 595 kts | 61° |
| 2026-04-28 19:19 | 34.98994 | -113.96487 | 45027 ft | 596 kts | 62° |
| 2026-04-28 19:20 | 35.02910 | -113.87586 | 45015 ft | 596 kts | 61° |
| 2026-04-28 19:20 | 35.06784 | -113.78641 | 45024 ft | 595 kts | 62° |
| 2026-04-28 19:21 | 35.10674 | -113.69697 | 45023 ft | 598 kts | 61° |
| 2026-04-28 19:21 | 35.14559 | -113.60716 | 45031 ft | 598 kts | 62° |
| 2026-04-28 19:22 | 35.17148 | -113.54706 | 45045 ft | 597 kts | 62° |
| 2026-04-28 19:22 | 35.22311 | -113.42741 | 45029 ft | 597 kts | 62° |
| 2026-04-28 19:23 | 35.26174 | -113.33731 | 45038 ft | 598 kts | 62° |
| 2026-04-28 19:23 | 35.30041 | -113.24711 | 45036 ft | 598 kts | 62° |
| 2026-04-28 19:24 | 35.33893 | -113.15684 | 45048 ft | 598 kts | 62° |
| 2026-04-28 19:24 | 35.37746 | -113.06644 | 45064 ft | 599 kts | 62° |
| 2026-04-28 19:25 | 35.40944 | -112.99113 | 45064 ft | 599 kts | 62° |
| 2026-04-28 19:25 | 35.45438 | -112.88510 | 45069 ft | 600 kts | 62° |
| 2026-04-28 19:26 | 35.48627 | -112.80960 | 45099 ft | 599 kts | 62° |
| 2026-04-28 19:26 | 35.52462 | -112.71863 | 45077 ft | 602 kts | 62° |
| 2026-04-28 19:27 | 35.56304 | -112.62723 | 45082 ft | 602 kts | 62° |
| 2026-04-28 19:27 | 35.60135 | -112.53584 | 45086 ft | 602 kts | 62° |
| 2026-04-28 19:28 | 35.63962 | -112.44429 | 45085 ft | 603 kts | 62° |
| 2026-04-28 19:28 | 35.67786 | -112.35255 | 45103 ft | 603 kts | 62° |
| 2026-04-28 19:29 | 35.70960 | -112.27624 | 45120 ft | 603 kts | 62° |
| 2026-04-28 19:29 | 35.75416 | -112.16877 | 45136 ft | 603 kts | 62° |
| 2026-04-28 19:30 | 35.79220 | -112.07676 | 45132 ft | 602 kts | 62° |
| 2026-04-28 19:30 | 35.83007 | -111.98490 | 45132 ft | 602 kts | 62° |
| 2026-04-28 19:31 | 35.86789 | -111.89291 | 45134 ft | 601 kts | 62° |
| 2026-04-28 19:31 | 35.90565 | -111.80080 | 45103 ft | 602 kts | 62° |
| 2026-04-28 19:32 | 35.94341 | -111.70842 | 45053 ft | 603 kts | 62° |
| 2026-04-28 19:32 | 35.98114 | -111.61587 | 45048 ft | 603 kts | 62° |
| 2026-04-28 19:33 | 36.01874 | -111.52335 | 45043 ft | 604 kts | 62° |
| 2026-04-28 19:33 | 36.05633 | -111.43064 | 45046 ft | 603 kts | 62° |
| 2026-04-28 19:34 | 36.09382 | -111.33785 | 45054 ft | 603 kts | 63° |
| 2026-04-28 19:34 | 36.13386 | -111.24685 | 45058 ft | 601 kts | 54° |
| 2026-04-28 19:35 | 36.18363 | -111.16393 | 45072 ft | 600 kts | 50° |
| 2026-04-28 19:35 | 36.23223 | -111.07974 | 45074 ft | 602 kts | 53° |
| 2026-04-28 19:36 | 36.28122 | -110.99580 | 45064 ft | 601 kts | 51° |
| 2026-04-28 19:36 | 36.33019 | -110.91180 | 45060 ft | 600 kts | 52° |
| 2026-04-28 19:37 | 36.37036 | -110.84178 | 45054 ft | 600 kts | 51° |
| 2026-04-28 19:37 | 36.42753 | -110.74373 | 45060 ft | 601 kts | 52° |
| 2026-04-28 19:38 | 36.47593 | -110.65925 | 45054 ft | 600 kts | 51° |
| 2026-04-28 19:38 | 36.52466 | -110.57502 | 45055 ft | 600 kts | 52° |
| 2026-04-28 19:39 | 36.57303 | -110.49035 | 45056 ft | 601 kts | 52° |
| 2026-04-28 19:39 | 36.62099 | -110.40523 | 45046 ft | 601 kts | 52° |
| 2026-04-28 19:40 | 36.67059 | -110.32166 | 45038 ft | 600 kts | 51° |
| 2026-04-28 19:40 | 36.71818 | -110.23603 | 45045 ft | 601 kts | 52° |
| 2026-04-28 19:41 | 36.76688 | -110.15142 | 45037 ft | 600 kts | 51° |
| 2026-04-28 19:41 | 36.81486 | -110.06624 | 45032 ft | 600 kts | 52° |
| 2026-04-28 19:42 | 36.86267 | -109.98172 | 45027 ft | 600 kts | 51° |
| 2026-04-28 19:42 | 36.90306 | -109.91042 | 45037 ft | 600 kts | 52° |
| 2026-04-28 19:43 | 36.95898 | -109.81057 | 45040 ft | 600 kts | 52° |
| 2026-04-28 19:43 | 37.00661 | -109.72592 | 45048 ft | 598 kts | 52° |
| 2026-04-28 19:44 | 37.05425 | -109.64053 | 45051 ft | 599 kts | 52° |
| 2026-04-28 19:44 | 37.10202 | -109.55512 | 45057 ft | 599 kts | 52° |
| 2026-04-28 19:45 | 37.14961 | -109.46947 | 45059 ft | 599 kts | 52° |
| 2026-04-28 19:45 | 37.19725 | -109.38377 | 45060 ft | 599 kts | 52° |
| 2026-04-28 19:46 | 37.24478 | -109.29786 | 45066 ft | 599 kts | 52° |
| 2026-04-28 19:46 | 37.29228 | -109.21194 | 45066 ft | 600 kts | 52° |
| 2026-04-28 19:47 | 37.33964 | -109.12592 | 45056 ft | 596 kts | 52° |
| 2026-04-28 19:47 | 37.38682 | -109.04012 | 45069 ft | 597 kts | 52° |
| 2026-04-28 19:48 | 37.43394 | -108.95412 | 45084 ft | 597 kts | 52° |
| 2026-04-28 19:48 | 37.48102 | -108.86802 | 45084 ft | 597 kts | 52° |
| 2026-04-28 19:49 | 37.52803 | -108.78180 | 45093 ft | 597 kts | 52° |
| 2026-04-28 19:49 | 37.57503 | -108.69539 | 45100 ft | 598 kts | 52° |
| 2026-04-28 19:50 | 37.64540 | -108.56558 | 45093 ft | 596 kts | 52° |
| 2026-04-28 19:51 | 37.69200 | -108.47934 | 45087 ft | 595 kts | 52° |
| 2026-04-28 19:51 | 37.73856 | -108.39296 | 45098 ft | 595 kts | 52° |
| 2026-04-28 19:52 | 37.78501 | -108.30653 | 45093 ft | 594 kts | 52° |
| 2026-04-28 19:52 | 37.83145 | -108.21993 | 45142 ft | 595 kts | 52° |
| 2026-04-28 19:53 | 37.87774 | -108.13333 | 45183 ft | 595 kts | 52° |
| 2026-04-28 19:53 | 37.92408 | -108.04647 | 45220 ft | 595 kts | 52° |
| 2026-04-28 19:54 | 37.97030 | -107.95955 | 45100 ft | 592 kts | 52° |
| 2026-04-28 19:54 | 38.01618 | -107.87310 | 45096 ft | 592 kts | 52° |
| 2026-04-28 19:55 | 38.06204 | -107.78640 | 45094 ft | 592 kts | 53° |
| 2026-04-28 19:55 | 38.10785 | -107.69960 | 45103 ft | 591 kts | 53° |
| 2026-04-28 19:56 | 38.15352 | -107.61284 | 45099 ft | 591 kts | 53° |
| 2026-04-28 19:56 | 38.19918 | -107.52584 | 45100 ft | 591 kts | 53° |
| 2026-04-28 19:57 | 38.24473 | -107.43885 | 45095 ft | 591 kts | 53° |
| 2026-04-28 19:57 | 38.28992 | -107.35230 | 45088 ft | 589 kts | 53° |
| 2026-04-28 19:58 | 38.33515 | -107.26544 | 45100 ft | 589 kts | 53° |
| 2026-04-28 19:58 | 38.38037 | -107.17838 | 45119 ft | 589 kts | 53° |
| 2026-04-28 19:59 | 38.42583 | -107.09061 | 45143 ft | 588 kts | 53° |
| 2026-04-28 19:59 | 38.47254 | -107.00581 | 45157 ft | 588 kts | 48° |
| 2026-04-28 20:00 | 38.52372 | -106.92471 | 45170 ft | 587 kts | 47° |
| 2026-04-28 20:00 | 38.57392 | -106.84231 | 44736 ft | 587 kts | 49° |
| 2026-04-28 20:00 | 38.59920 | -106.80126 | 43874 ft | 586 kts | 47° |
| 2026-04-28 20:01 | 38.62452 | -106.76070 | 43096 ft | 583 kts | 47° |
| 2026-04-28 20:01 | 38.64963 | -106.71997 | 42328 ft | 584 kts | 48° |
| 2026-04-28 20:01 | 38.67460 | -106.67888 | 41562 ft | 586 kts | 48° |
| 2026-04-28 20:01 | 38.69973 | -106.63767 | 40798 ft | 587 kts | 47° |
| 2026-04-28 20:02 | 38.72505 | -106.59654 | 40010 ft | 589 kts | 47° |
| 2026-04-28 20:02 | 38.75043 | -106.55523 | 39225 ft | 591 kts | 47° |
| 2026-04-28 20:02 | 38.77582 | -106.51351 | 38407 ft | 597 kts | 47° |
| 2026-04-28 20:02 | 38.80130 | -106.47152 | 37604 ft | 596 kts | 46° |
| 2026-04-28 20:03 | 38.82689 | -106.42953 | 36835 ft | 599 kts | 46° |
| 2026-04-28 20:03 | 38.85254 | -106.38750 | 36062 ft | 598 kts | 46° |
| 2026-04-28 20:03 | 38.87815 | -106.34532 | 35280 ft | 599 kts | 47° |
| 2026-04-28 20:03 | 38.90337 | -106.30354 | 34499 ft | 585 kts | 47° |
| 2026-04-28 20:04 | 38.92825 | -106.26240 | 33690 ft | 586 kts | 47° |
| 2026-04-28 20:04 | 38.95326 | -106.22126 | 32920 ft | 579 kts | 47° |
| 2026-04-28 20:04 | 38.97775 | -106.18070 | 32154 ft | 570 kts | 47° |
| 2026-04-28 20:04 | 39.00184 | -106.14066 | 31395 ft | 563 kts | 47° |
| 2026-04-28 20:05 | 39.02566 | -106.10109 | 30645 ft | 555 kts | 47° |
| 2026-04-28 20:05 | 39.04913 | -106.06218 | 29857 ft | 547 kts | 47° |
| 2026-04-28 20:05 | 39.07229 | -106.02370 | 29107 ft | 541 kts | 47° |
| 2026-04-28 20:05 | 39.09517 | -105.98555 | 28406 ft | 535 kts | 47° |
| 2026-04-28 20:06 | 39.11777 | -105.94784 | 27689 ft | 529 kts | 47° |
| 2026-04-28 20:06 | 39.14014 | -105.91051 | 26932 ft | 524 kts | 47° |
| 2026-04-28 20:06 | 39.16196 | -105.87405 | 26264 ft | 518 kts | 47° |
| 2026-04-28 20:06 | 39.18386 | -105.83740 | 25576 ft | 513 kts | 48° |
| 2026-04-28 20:07 | 39.20553 | -105.80109 | 24903 ft | 508 kts | 48° |
| 2026-04-28 20:07 | 39.22002 | -105.77678 | 24448 ft | 505 kts | 48° |
| 2026-04-28 20:07 | 39.24816 | -105.72959 | 23575 ft | 497 kts | 48° |
| 2026-04-28 20:07 | 39.26865 | -105.69508 | 22884 ft | 471 kts | 48° |
| 2026-04-28 20:08 | 39.28801 | -105.66240 | 22278 ft | 447 kts | 48° |
| 2026-04-28 20:08 | 39.30648 | -105.63134 | 21713 ft | 426 kts | 48° |
| 2026-04-28 20:08 | 39.32410 | -105.60157 | 21143 ft | 409 kts | 49° |
| 2026-04-28 20:08 | 39.34094 | -105.57297 | 20632 ft | 392 kts | 49° |
| 2026-04-28 20:09 | 39.35718 | -105.54549 | 20120 ft | 378 kts | 49° |
| 2026-04-28 20:09 | 39.37294 | -105.51908 | 19629 ft | 365 kts | 49° |
| 2026-04-28 20:09 | 39.38824 | -105.49341 | 19181 ft | 357 kts | 49° |
| 2026-04-28 20:09 | 39.40326 | -105.46805 | 18703 ft | 353 kts | 50° |
| 2026-04-28 20:10 | 39.41801 | -105.44298 | 18236 ft | 348 kts | 50° |
| 2026-04-28 20:10 | 39.43256 | -105.41828 | 17688 ft | 344 kts | 50° |
| 2026-04-28 20:10 | 39.44213 | -105.40205 | 17343 ft | 341 kts | 50° |
| 2026-04-28 20:10 | 39.45654 | -105.37762 | 16903 ft | 343 kts | 50° |
| 2026-04-28 20:11 | 39.47100 | -105.35303 | 16467 ft | 342 kts | 50° |
| 2026-04-28 20:11 | 39.48536 | -105.32859 | 16012 ft | 339 kts | 50° |
| 2026-04-28 20:11 | 39.49958 | -105.30438 | 15562 ft | 336 kts | 50° |
| 2026-04-28 20:11 | 39.51368 | -105.28037 | 15137 ft | 334 kts | 50° |
| 2026-04-28 20:12 | 39.52779 | -105.25634 | 14681 ft | 335 kts | 50° |
| 2026-04-28 20:12 | 39.54184 | -105.23236 | 14241 ft | 332 kts | 50° |
| 2026-04-28 20:12 | 39.55574 | -105.20860 | 13819 ft | 330 kts | 50° |
| 2026-04-28 20:12 | 39.56951 | -105.18508 | 13367 ft | 325 kts | 50° |
| 2026-04-28 20:13 | 39.58304 | -105.16192 | 12947 ft | 319 kts | 50° |
| 2026-04-28 20:13 | 39.59561 | -105.13830 | 12531 ft | 316 kts | 52° |
| 2026-04-28 20:13 | 39.60873 | -105.11568 | 12122 ft | 312 kts | 50° |
| 2026-04-28 20:13 | 39.62180 | -105.09333 | 11713 ft | 309 kts | 51° |
| 2026-04-28 20:14 | 39.63432 | -105.07075 | 11323 ft | 305 kts | 52° |
| 2026-04-28 20:14 | 39.64652 | -105.04854 | 10926 ft | 302 kts | 52° |
| 2026-04-28 20:14 | 39.65873 | -105.02672 | 10534 ft | 296 kts | 51° |
| 2026-04-28 20:14 | 39.67079 | -105.00530 | 10145 ft | 292 kts | 51° |
| 2026-04-28 20:15 | 39.68259 | -104.98416 | 9759 ft | 287 kts | 51° |
| 2026-04-28 20:15 | 39.69536 | -104.96482 | 9321 ft | 280 kts | 37° |
| 2026-04-28 20:15 | 39.71269 | -104.95357 | 8952 ft | 271 kts | 14° |
| 2026-04-28 20:15 | 39.73060 | -104.95154 | 8631 ft | 256 kts | 358° |
| 2026-04-28 20:16 | 39.74792 | -104.95261 | 8327 ft | 244 kts | 357° |
| 2026-04-28 20:16 | 39.76454 | -104.95339 | 8001 ft | 234 kts | 0° |
| 2026-04-28 20:16 | 39.78054 | -104.95290 | 7697 ft | 226 kts | 1° |
| 2026-04-28 20:16 | 39.79598 | -104.95301 | 7406 ft | 217 kts | 0° |
| 2026-04-28 20:17 | 39.81051 | -104.95326 | 7113 ft | 201 kts | 358° |
| 2026-04-28 20:17 | 39.82336 | -104.95903 | 6834 ft | 193 kts | 330° |
| 2026-04-28 20:17 | 39.83254 | -104.97139 | 6916 ft | 193 kts | 311° |
| 2026-04-28 20:17 | 39.84018 | -104.98540 | 6944 ft | 187 kts | 308° |
| 2026-04-28 20:18 | 39.84715 | -104.99869 | 6925 ft | 167 kts | 308° |
| 2026-04-28 20:18 | 39.85138 | -105.00683 | 6974 ft | 154 kts | 308° |
| 2026-04-28 20:18 | 39.85881 | -105.02089 | 6976 ft | 138 kts | 310° |
| 2026-04-28 20:18 | 39.86419 | -105.03115 | 6981 ft | 134 kts | 310° |
| 2026-04-28 20:19 | 39.86953 | -105.04124 | 6850 ft | 136 kts | 311° |
| 2026-04-28 20:19 | 39.87485 | -105.05138 | 6673 ft | 136 kts | 310° |
| 2026-04-28 20:19 | 39.88016 | -105.06146 | 6477 ft | 134 kts | 311° |
| 2026-04-28 20:19 | 39.88539 | -105.07146 | 6268 ft | 134 kts | 309° |
| 2026-04-28 20:20 | 39.89070 | -105.08158 | 6058 ft | 133 kts | 307° |
| 2026-04-28 20:20 | 39.89595 | -105.09157 | 5807 ft | 135 kts | 308° |
| 2026-04-28 20:20 | 39.90121 | -105.10164 | 5620 ft | 133 kts | 308° |
| 2026-04-28 20:20 | 39.90606 | -105.11086 | 5603 ft | 103 kts | 305° |
| 2026-04-28 20:21 | 39.90881 | -105.11607 | 5617 ft | 44 kts | 305° |
| 2026-04-28 20:21 | 39.90999 | -105.11828 | 5621 ft | 12 kts | 304° |
| 2026-04-28 20:21 | 39.91038 | -105.11848 | 5621 ft | 6 kts | 62° |
| 2026-04-28 20:21 | 39.91032 | -105.11778 | 5619 ft | 8 kts | 96° |
| 2026-04-28 20:22 | 39.91029 | -105.11706 | 5619 ft | 8 kts | 94° |
| 2026-04-28 20:22 | 39.91020 | -105.11622 | 5619 ft | 11 kts | 115° |
| 2026-04-28 20:22 | 39.90980 | -105.11541 | 5617 ft | 11 kts | 124° |
| 2026-04-28 20:22 | 39.90933 | -105.11453 | 5616 ft | 12 kts | 124° |
| 2026-04-28 20:23 | 39.90886 | -105.11364 | 5614 ft | 12 kts | 124° |
| 2026-04-28 20:23 | 39.90838 | -105.11272 | 5615 ft | 13 kts | 124° |
| 2026-04-28 20:23 | 39.90797 | -105.11188 | 5612 ft | 9 kts | 99° |
| 2026-04-28 20:23 | 39.90823 | -105.11149 | 5614 ft | 3 kts | 38° |
| 2026-04-28 20:24 | 39.90844 | -105.11131 | 5614 ft | 3 kts | 33° |
| 2026-04-28 20:24 | 39.90860 | -105.11132 | 5617 ft | 2 kts | 315° |
| 2026-04-28 20:24 | 39.90866 | -105.11143 | 5616 ft | 1 kts | 304° |
| 2026-04-28 20:24 | 39.90868 | -105.11148 | 5615 ft | 0 kts | 304° |